sensor_id;sensor_type;location;lat;lon;timestamp;temperature;humidity
79012;DHT22;68418;44.714;37.756;2023-03-30T00:00:37;19.62;50.87
79012;DHT22;68418;44.714;37.756;2023-03-30T00:01:39;19.66;51.52
79012;DHT22;68418;44.714;37.756;2023-03-30T00:02:41;19.69;51.72
79012;DHT22;68418;44.714;37.756;2023-03-30T00:03:45;19.68;51.06
79012;DHT22;68418;44.714;37.756;2023-03-30T00:04:46;19.62;50.75
79012;DHT22;68418;44.714;37.756;2023-03-30T00:05:49;19.65;51.02
79012;DHT22;68418;44.714;37.756;2023-03-30T00:06:52;19.65;50.81
79012;DHT22;68418;44.714;37.756;2023-03-30T00:07:53;19.61;50.59
79012;DHT22;68418;44.714;37.756;2023-03-30T00:08:55;19.64;51.06
79012;DHT22;68418;44.714;37.756;2023-03-30T00:09:59;19.61;50.80
79012;DHT22;68418;44.714;37.756;2023-03-30T00:11:12;19.62;50.90
79012;DHT22;68418;44.714;37.756;2023-03-30T00:12:13;19.61;51.08
79012;DHT22;68418;44.714;37.756;2023-03-30T00:13:20;19.57;50.95
79012;DHT22;68418;44.714;37.756;2023-03-30T00:14:22;19.58;51.09
79012;DHT22;68418;44.714;37.756;2023-03-30T00:15:29;19.57;51.16
79012;DHT22;68418;44.714;37.756;2023-03-30T00:16:31;19.57;51.05
79012;DHT22;68418;44.714;37.756;2023-03-30T00:17:32;19.57;51.59
79012;DHT22;68418;44.714;37.756;2023-03-30T00:18:34;19.57;50.95
79012;DHT22;68418;44.714;37.756;2023-03-30T00:19:37;19.54;50.84
79012;DHT22;68418;44.714;37.756;2023-03-30T00:20:39;19.57;50.97
79012;DHT22;68418;44.714;37.756;2023-03-30T00:21:43;19.55;50.84
79012;DHT22;68418;44.714;37.756;2023-03-30T00:22:45;19.57;50.90
79012;DHT22;68418;44.714;37.756;2023-03-30T00:23:48;19.58;50.76
79012;DHT22;68418;44.714;37.756;2023-03-30T00:24:50;19.57;50.68
79012;DHT22;68418;44.714;37.756;2023-03-30T00:25:51;19.55;51.03
79012;DHT22;68418;44.714;37.756;2023-03-30T00:26:53;19.55;50.89
79012;DHT22;68418;44.714;37.756;2023-03-30T00:27:54;19.54;50.79
79012;DHT22;68418;44.714;37.756;2023-03-30T00:28:56;19.57;50.92
79012;DHT22;68418;44.714;37.756;2023-03-30T00:29:57;19.55;50.86
79012;DHT22;68418;44.714;37.756;2023-03-30T00:30:59;19.54;50.64
79012;DHT22;68418;44.714;37.756;2023-03-30T00:32:01;19.53;51.04
79012;DHT22;68418;44.714;37.756;2023-03-30T00:33:04;19.53;50.73
79012;DHT22;68418;44.714;37.756;2023-03-30T00:34:05;19.53;50.83
79012;DHT22;68418;44.714;37.756;2023-03-30T00:35:07;19.53;50.72
79012;DHT22;68418;44.714;37.756;2023-03-30T00:36:09;19.53;51.02
79012;DHT22;68418;44.714;37.756;2023-03-30T00:37:10;19.53;50.97
79012;DHT22;68418;44.714;37.756;2023-03-30T00:38:12;19.51;51.12
79012;DHT22;68418;44.714;37.756;2023-03-30T00:39:14;19.55;50.99
79012;DHT22;68418;44.714;37.756;2023-03-30T00:40:20;19.54;50.62
79012;DHT22;68418;44.714;37.756;2023-03-30T00:41:22;19.53;50.93
79012;DHT22;68418;44.714;37.756;2023-03-30T00:42:24;19.54;50.81
79012;DHT22;68418;44.714;37.756;2023-03-30T00:43:26;19.54;50.60
79012;DHT22;68418;44.714;37.756;2023-03-30T00:46:07;19.54;50.81
79012;DHT22;68418;44.714;37.756;2023-03-30T00:47:09;19.53;50.87
79012;DHT22;68418;44.714;37.756;2023-03-30T00:49:24;19.53;50.91
79012;DHT22;68418;44.714;37.756;2023-03-30T00:50:36;19.51;51.26
79012;DHT22;68418;44.714;37.756;2023-03-30T00:51:39;19.51;51.30
79012;DHT22;68418;44.714;37.756;2023-03-30T00:52:43;19.50;50.51
79012;DHT22;68418;44.714;37.756;2023-03-30T00:53:47;19.51;50.79
79012;DHT22;68418;44.714;37.756;2023-03-30T00:54:54;19.51;50.92
79012;DHT22;68418;44.714;37.756;2023-03-30T00:55:57;19.51;51.34
79012;DHT22;68418;44.714;37.756;2023-03-30T00:57:01;19.48;51.00
79012;DHT22;68418;44.714;37.756;2023-03-30T00:58:03;19.51;51.17
79012;DHT22;68418;44.714;37.756;2023-03-30T00:59:04;19.51;50.99
79012;DHT22;68418;44.714;37.756;2023-03-30T01:00:07;19.51;51.08
79012;DHT22;68418;44.714;37.756;2023-03-30T01:01:13;19.48;50.87
79012;DHT22;68418;44.714;37.756;2023-03-30T01:02:15;19.50;50.90
79012;DHT22;68418;44.714;37.756;2023-03-30T01:03:31;19.51;50.76
79012;DHT22;68418;44.714;37.756;2023-03-30T01:04:33;19.51;51.21
79012;DHT22;68418;44.714;37.756;2023-03-30T01:05:38;19.53;51.08
79012;DHT22;68418;44.714;37.756;2023-03-30T01:06:42;19.50;50.82
79012;DHT22;68418;44.714;37.756;2023-03-30T01:07:46;19.51;50.84
79012;DHT22;68418;44.714;37.756;2023-03-30T01:08:53;19.47;50.88
79012;DHT22;68418;44.714;37.756;2023-03-30T01:09:54;19.50;50.82
79012;DHT22;68418;44.714;37.756;2023-03-30T01:10:55;19.50;50.65
79012;DHT22;68418;44.714;37.756;2023-03-30T01:11:58;19.47;50.89
79012;DHT22;68418;44.714;37.756;2023-03-30T01:13:00;19.47;50.89
79012;DHT22;68418;44.714;37.756;2023-03-30T01:14:05;19.47;50.59
79012;DHT22;68418;44.714;37.756;2023-03-30T01:15:08;19.50;50.90
79012;DHT22;68418;44.714;37.756;2023-03-30T01:17:28;19.48;50.80
79012;DHT22;68418;44.714;37.756;2023-03-30T01:18:48;19.47;50.92
79012;DHT22;68418;44.714;37.756;2023-03-30T01:23:43;19.45;50.54
79012;DHT22;68418;44.714;37.756;2023-03-30T01:27:51;19.47;50.89
79012;DHT22;68418;44.714;37.756;2023-03-30T01:29:06;19.47;50.97
79012;DHT22;68418;44.714;37.756;2023-03-30T01:33:09;19.45;50.89
79012;DHT22;68418;44.714;37.756;2023-03-30T01:35:54;19.45;50.73
79012;DHT22;68418;44.714;37.756;2023-03-30T01:40:16;19.45;50.90
79012;DHT22;68418;44.714;37.756;2023-03-30T01:42:58;19.44;50.91
79012;DHT22;68418;44.714;37.756;2023-03-30T01:46:58;19.45;50.70
79012;DHT22;68418;44.714;37.756;2023-03-30T01:48:11;19.41;50.90
79012;DHT22;68418;44.714;37.756;2023-03-30T01:50:56;19.43;51.24
79012;DHT22;68418;44.714;37.756;2023-03-30T01:52:14;19.43;51.28
79012;DHT22;68418;44.714;37.756;2023-03-30T01:53:29;19.44;51.16
79012;DHT22;68418;44.714;37.756;2023-03-30T01:54:47;19.39;50.94
79012;DHT22;68418;44.714;37.756;2023-03-30T01:55:54;19.41;51.19
79012;DHT22;68418;44.714;37.756;2023-03-30T01:57:13;19.41;50.92
79012;DHT22;68418;44.714;37.756;2023-03-30T01:58:30;19.41;51.32
79012;DHT22;68418;44.714;37.756;2023-03-30T01:59:56;19.44;50.93
79012;DHT22;68418;44.714;37.756;2023-03-30T02:01:00;19.41;51.05
79012;DHT22;68418;44.714;37.756;2023-03-30T02:02:03;19.43;50.94
79012;DHT22;68418;44.714;37.756;2023-03-30T02:03:11;19.41;51.07
79012;DHT22;68418;44.714;37.756;2023-03-30T02:04:15;19.43;51.17
79012;DHT22;68418;44.714;37.756;2023-03-30T02:05:18;19.43;50.93
79012;DHT22;68418;44.714;37.756;2023-03-30T02:06:37;19.41;50.87
79012;DHT22;68418;44.714;37.756;2023-03-30T02:07:43;19.44;51.32
79012;DHT22;68418;44.714;37.756;2023-03-30T02:08:47;19.44;51.16
79012;DHT22;68418;44.714;37.756;2023-03-30T02:09:52;19.41;51.03
79012;DHT22;68418;44.714;37.756;2023-03-30T02:10:57;19.38;50.90
79012;DHT22;68418;44.714;37.756;2023-03-30T02:12:01;19.41;51.06
79012;DHT22;68418;44.714;37.756;2023-03-30T02:13:04;19.41;50.83
79012;DHT22;68418;44.714;37.756;2023-03-30T02:14:06;19.39;51.15
79012;DHT22;68418;44.714;37.756;2023-03-30T02:15:10;19.39;51.44
79012;DHT22;68418;44.714;37.756;2023-03-30T02:16:37;19.43;51.08
79012;DHT22;68418;44.714;37.756;2023-03-30T02:17:41;19.41;50.90
79012;DHT22;68418;44.714;37.756;2023-03-30T02:18:45;19.39;51.36
79012;DHT22;68418;44.714;37.756;2023-03-30T02:19:47;19.43;51.40
79012;DHT22;68418;44.714;37.756;2023-03-30T02:20:50;19.39;50.90
79012;DHT22;68418;44.714;37.756;2023-03-30T02:21:52;19.41;51.18
79012;DHT22;68418;44.714;37.756;2023-03-30T02:22:54;19.38;50.82
79012;DHT22;68418;44.714;37.756;2023-03-30T02:23:59;19.41;50.85
79012;DHT22;68418;44.714;37.756;2023-03-30T02:25:04;19.39;50.61
79012;DHT22;68418;44.714;37.756;2023-03-30T02:26:06;19.41;51.18
79012;DHT22;68418;44.714;37.756;2023-03-30T02:27:09;19.38;50.85
79012;DHT22;68418;44.714;37.756;2023-03-30T02:28:11;19.39;50.90
79012;DHT22;68418;44.714;37.756;2023-03-30T02:29:14;19.39;51.65
79012;DHT22;68418;44.714;37.756;2023-03-30T02:30:16;19.39;51.02
79012;DHT22;68418;44.714;37.756;2023-03-30T02:31:18;19.41;51.00
79012;DHT22;68418;44.714;37.756;2023-03-30T02:32:22;19.41;50.88
79012;DHT22;68418;44.714;37.756;2023-03-30T02:36:37;19.38;50.92
79012;DHT22;68418;44.714;37.756;2023-03-30T02:38:19;19.38;50.70
79012;DHT22;68418;44.714;37.756;2023-03-30T02:41:09;19.37;51.01
79012;DHT22;68418;44.714;37.756;2023-03-30T02:43:29;19.38;51.06
79012;DHT22;68418;44.714;37.756;2023-03-30T02:44:58;19.35;51.07
79012;DHT22;68418;44.714;37.756;2023-03-30T02:48:01;19.38;50.83
79012;DHT22;68418;44.714;37.756;2023-03-30T02:49:35;19.38;51.25
79012;DHT22;68418;44.714;37.756;2023-03-30T02:58:36;19.35;50.44
79012;DHT22;68418;44.714;37.756;2023-03-30T02:59:45;19.35;50.55
79012;DHT22;68418;44.714;37.756;2023-03-30T03:00:49;19.35;50.75
79012;DHT22;68418;44.714;37.756;2023-03-30T03:02:01;19.35;51.01
79012;DHT22;68418;44.714;37.756;2023-03-30T03:03:22;19.32;51.51
79012;DHT22;68418;44.714;37.756;2023-03-30T03:04:27;19.35;51.50
79012;DHT22;68418;44.714;37.756;2023-03-30T03:05:53;19.35;50.95
79012;DHT22;68418;44.714;37.756;2023-03-30T03:07:02;19.32;50.96
79012;DHT22;68418;44.714;37.756;2023-03-30T03:08:05;19.37;51.26
79012;DHT22;68418;44.714;37.756;2023-03-30T03:09:06;19.35;50.95
79012;DHT22;68418;44.714;37.756;2023-03-30T03:10:09;19.37;51.21
79012;DHT22;68418;44.714;37.756;2023-03-30T03:11:11;19.35;50.92
79012;DHT22;68418;44.714;37.756;2023-03-30T03:12:13;19.34;50.96
79012;DHT22;68418;44.714;37.756;2023-03-30T03:13:16;19.34;51.00
79012;DHT22;68418;44.714;37.756;2023-03-30T03:14:19;19.35;50.68
79012;DHT22;68418;44.714;37.756;2023-03-30T03:15:21;19.37;51.12
79012;DHT22;68418;44.714;37.756;2023-03-30T03:16:38;19.34;50.66
79012;DHT22;68418;44.714;37.756;2023-03-30T03:17:48;19.32;50.74
79012;DHT22;68418;44.714;37.756;2023-03-30T03:18:50;19.35;50.56
79012;DHT22;68418;44.714;37.756;2023-03-30T03:19:52;19.35;51.24
79012;DHT22;68418;44.714;37.756;2023-03-30T03:20:54;19.39;50.94
79012;DHT22;68418;44.714;37.756;2023-03-30T03:21:57;19.39;51.67
79012;DHT22;68418;44.714;37.756;2023-03-30T03:23:00;19.37;51.03
79012;DHT22;68418;44.714;37.756;2023-03-30T03:24:03;19.43;52.15
79012;DHT22;68418;44.714;37.756;2023-03-30T03:25:28;19.45;50.18
79012;DHT22;68418;44.714;37.756;2023-03-30T03:26:36;19.44;49.84
79012;DHT22;68418;44.714;37.756;2023-03-30T03:27:37;19.38;50.22
79012;DHT22;68418;44.714;37.756;2023-03-30T03:28:48;19.47;49.50
79012;DHT22;68418;44.714;37.756;2023-03-30T03:29:49;19.57;49.38
79012;DHT22;68418;44.714;37.756;2023-03-30T03:30:51;19.64;53.92
79012;DHT22;68418;44.714;37.756;2023-03-30T03:31:56;19.78;49.32
79012;DHT22;68418;44.714;37.756;2023-03-30T03:33:00;19.83;48.91
79012;DHT22;68418;44.714;37.756;2023-03-30T03:34:04;19.87;48.44
79012;DHT22;68418;44.714;37.756;2023-03-30T03:35:29;19.92;48.34
79012;DHT22;68418;44.714;37.756;2023-03-30T03:36:33;19.92;48.13
79012;DHT22;68418;44.714;37.756;2023-03-30T03:37:36;19.93;48.12
79012;DHT22;68418;44.714;37.756;2023-03-30T03:38:38;19.97;47.99
79012;DHT22;68418;44.714;37.756;2023-03-30T03:39:39;19.97;47.63
79012;DHT22;68418;44.714;37.756;2023-03-30T03:40:48;20.00;47.69
79012;DHT22;68418;44.714;37.756;2023-03-30T03:41:50;20.00;47.45
79012;DHT22;68418;44.714;37.756;2023-03-30T03:42:51;20.00;47.48
79012;DHT22;68418;44.714;37.756;2023-03-30T03:43:53;20.05;47.51
79012;DHT22;68418;44.714;37.756;2023-03-30T03:44:54;20.03;48.31
79012;DHT22;68418;44.714;37.756;2023-03-30T03:45:56;20.05;48.34
79012;DHT22;68418;44.714;37.756;2023-03-30T03:46:58;20.06;47.87
79012;DHT22;68418;44.714;37.756;2023-03-30T03:48:00;20.08;48.78
79012;DHT22;68418;44.714;37.756;2023-03-30T03:49:14;20.09;48.49
79012;DHT22;68418;44.714;37.756;2023-03-30T03:50:16;20.05;48.22
79012;DHT22;68418;44.714;37.756;2023-03-30T03:51:18;19.99;47.79
79012;DHT22;68418;44.714;37.756;2023-03-30T03:52:20;19.93;47.53
79012;DHT22;68418;44.714;37.756;2023-03-30T03:53:23;19.89;47.57
79012;DHT22;68418;44.714;37.756;2023-03-30T03:54:28;19.83;48.17
79012;DHT22;68418;44.714;37.756;2023-03-30T03:55:29;19.89;48.76
79012;DHT22;68418;44.714;37.756;2023-03-30T03:56:34;19.86;49.63
79012;DHT22;68418;44.714;37.756;2023-03-30T03:57:36;19.89;50.10
79012;DHT22;68418;44.714;37.756;2023-03-30T03:58:38;19.96;50.10
79012;DHT22;68418;44.714;37.756;2023-03-30T03:59:41;20.05;49.89
79012;DHT22;68418;44.714;37.756;2023-03-30T04:00:43;20.17;52.36
79012;DHT22;68418;44.714;37.756;2023-03-30T04:01:45;20.30;50.38
79012;DHT22;68418;44.714;37.756;2023-03-30T04:02:46;20.40;49.13
79012;DHT22;68418;44.714;37.756;2023-03-30T04:03:48;20.49;49.33
79012;DHT22;68418;44.714;37.756;2023-03-30T04:04:50;20.63;49.78
79012;DHT22;68418;44.714;37.756;2023-03-30T04:05:53;20.64;48.24
79012;DHT22;68418;44.714;37.756;2023-03-30T04:06:55;20.69;48.39
79012;DHT22;68418;44.714;37.756;2023-03-30T04:07:57;20.75;47.50
79012;DHT22;68418;44.714;37.756;2023-03-30T04:08:59;20.79;48.21
79012;DHT22;68418;44.714;37.756;2023-03-30T04:10:25;20.79;46.50
79012;DHT22;68418;44.714;37.756;2023-03-30T04:11:58;20.79;48.05
79012;DHT22;68418;44.714;37.756;2023-03-30T04:13:33;20.81;48.91
79012;DHT22;68418;44.714;37.756;2023-03-30T04:14:53;20.74;48.41
79012;DHT22;68418;44.714;37.756;2023-03-30T04:16:09;20.61;46.86
79012;DHT22;68418;44.714;37.756;2023-03-30T04:17:29;20.55;46.95
79012;DHT22;68418;44.714;37.756;2023-03-30T04:18:52;20.48;48.06
79012;DHT22;68418;44.714;37.756;2023-03-30T04:20:21;20.41;47.50
79012;DHT22;68418;44.714;37.756;2023-03-30T04:21:38;20.40;48.76
79012;DHT22;68418;44.714;37.756;2023-03-30T04:22:59;20.34;48.23
79012;DHT22;68418;44.714;37.756;2023-03-30T04:24:24;20.27;48.68
79012;DHT22;68418;44.714;37.756;2023-03-30T04:26:06;20.19;48.10
79012;DHT22;68418;44.714;37.756;2023-03-30T04:27:28;20.17;49.42
79012;DHT22;68418;44.714;37.756;2023-03-30T04:29:04;20.17;49.49
79012;DHT22;68418;44.714;37.756;2023-03-30T04:30:31;20.14;49.72
79012;DHT22;68418;44.714;37.756;2023-03-30T04:31:51;20.13;49.88
79012;DHT22;68418;44.714;37.756;2023-03-30T04:33:26;20.14;49.45
79012;DHT22;68418;44.714;37.756;2023-03-30T04:34:50;20.09;49.73
79012;DHT22;68418;44.714;37.756;2023-03-30T04:36:28;20.13;49.90
79012;DHT22;68418;44.714;37.756;2023-03-30T04:37:52;20.12;49.87
79012;DHT22;68418;44.714;37.756;2023-03-30T04:39:17;20.12;49.90
79012;DHT22;68418;44.714;37.756;2023-03-30T04:40:43;20.10;49.97
79012;DHT22;68418;44.714;37.756;2023-03-30T04:41:57;20.12;49.97
79012;DHT22;68418;44.714;37.756;2023-03-30T04:43:09;20.12;50.02
79012;DHT22;68418;44.714;37.756;2023-03-30T04:44:40;20.14;49.86
79012;DHT22;68418;44.714;37.756;2023-03-30T04:46:12;20.12;49.97
79012;DHT22;68418;44.714;37.756;2023-03-30T04:47:33;20.10;50.03
79012;DHT22;68418;44.714;37.756;2023-03-30T04:48:53;20.12;49.98
79012;DHT22;68418;44.714;37.756;2023-03-30T04:50:18;20.16;50.01
79012;DHT22;68418;44.714;37.756;2023-03-30T04:51:38;20.13;50.03
79012;DHT22;68418;44.714;37.756;2023-03-30T04:52:41;20.16;49.97
79012;DHT22;68418;44.714;37.756;2023-03-30T04:53:48;20.16;49.93
79012;DHT22;68418;44.714;37.756;2023-03-30T04:55:08;20.13;49.92
79012;DHT22;68418;44.714;37.756;2023-03-30T04:56:42;20.13;50.12
79012;DHT22;68418;44.714;37.756;2023-03-30T04:58:03;20.13;50.09
79012;DHT22;68418;44.714;37.756;2023-03-30T04:59:17;20.12;50.03
79012;DHT22;68418;44.714;37.756;2023-03-30T05:00:38;20.14;50.05
79012;DHT22;68418;44.714;37.756;2023-03-30T05:01:59;20.14;49.91
79012;DHT22;68418;44.714;37.756;2023-03-30T05:03:18;20.16;50.04
79012;DHT22;68418;44.714;37.756;2023-03-30T05:04:25;20.13;50.05
79012;DHT22;68418;44.714;37.756;2023-03-30T05:05:49;20.16;50.00
79012;DHT22;68418;44.714;37.756;2023-03-30T05:07:10;20.14;50.07
79012;DHT22;68418;44.714;37.756;2023-03-30T05:08:37;20.14;49.99
79012;DHT22;68418;44.714;37.756;2023-03-30T05:09:50;20.14;50.00
79012;DHT22;68418;44.714;37.756;2023-03-30T05:10:52;20.14;49.95
79012;DHT22;68418;44.714;37.756;2023-03-30T05:12:14;20.14;49.90
79012;DHT22;68418;44.714;37.756;2023-03-30T05:13:36;20.17;50.01
79012;DHT22;68418;44.714;37.756;2023-03-30T05:14:59;20.19;50.13
79012;DHT22;68418;44.714;37.756;2023-03-30T05:16:19;20.14;49.99
79012;DHT22;68418;44.714;37.756;2023-03-30T05:17:39;20.14;50.04
79012;DHT22;68418;44.714;37.756;2023-03-30T05:18:59;20.12;50.01
79012;DHT22;68418;44.714;37.756;2023-03-30T05:20:16;20.14;50.17
79012;DHT22;68418;44.714;37.756;2023-03-30T05:21:37;20.10;50.30
79012;DHT22;68418;44.714;37.756;2023-03-30T05:22:57;20.12;50.14
79012;DHT22;68418;44.714;37.756;2023-03-30T05:24:30;20.12;50.11
79012;DHT22;68418;44.714;37.756;2023-03-30T05:25:49;20.14;50.26
79012;DHT22;68418;44.714;37.756;2023-03-30T05:27:13;20.16;50.12
79012;DHT22;68418;44.714;37.756;2023-03-30T05:28:26;20.14;50.18
79012;DHT22;68418;44.714;37.756;2023-03-30T05:30:06;20.13;50.04
79012;DHT22;68418;44.714;37.756;2023-03-30T05:31:28;20.14;50.10
79012;DHT22;68418;44.714;37.756;2023-03-30T05:32:38;20.19;50.14
79012;DHT22;68418;44.714;37.756;2023-03-30T05:33:59;20.17;50.18
79012;DHT22;68418;44.714;37.756;2023-03-30T05:35:26;20.14;50.14
79012;DHT22;68418;44.714;37.756;2023-03-30T05:36:46;20.14;50.24
79012;DHT22;68418;44.714;37.756;2023-03-30T05:38:07;20.13;50.29
79012;DHT22;68418;44.714;37.756;2023-03-30T05:39:20;20.13;50.19
79012;DHT22;68418;44.714;37.756;2023-03-30T05:40:43;20.13;50.29
79012;DHT22;68418;44.714;37.756;2023-03-30T05:41:47;20.14;50.30
79012;DHT22;68418;44.714;37.756;2023-03-30T05:43:09;20.14;50.19
79012;DHT22;68418;44.714;37.756;2023-03-30T05:44:46;20.16;50.24
79012;DHT22;68418;44.714;37.756;2023-03-30T05:46:07;20.17;50.21
79012;DHT22;68418;44.714;37.756;2023-03-30T05:47:08;20.16;50.17
79012;DHT22;68418;44.714;37.756;2023-03-30T05:48:19;20.17;50.20
79012;DHT22;68418;44.714;37.756;2023-03-30T05:49:41;20.16;50.27
79012;DHT22;68418;44.714;37.756;2023-03-30T05:50:56;20.17;50.23
79012;DHT22;68418;44.714;37.756;2023-03-30T05:52:15;20.17;50.23
79012;DHT22;68418;44.714;37.756;2023-03-30T05:53:23;20.16;50.23
79012;DHT22;68418;44.714;37.756;2023-03-30T05:54:54;20.19;50.30
79012;DHT22;68418;44.714;37.756;2023-03-30T05:56:25;20.14;50.33
79012;DHT22;68418;44.714;37.756;2023-03-30T05:57:47;20.16;50.32
79012;DHT22;68418;44.714;37.756;2023-03-30T05:58:55;20.16;50.31
79012;DHT22;68418;44.714;37.756;2023-03-30T06:00:31;20.16;50.32
79012;DHT22;68418;44.714;37.756;2023-03-30T06:01:44;20.19;50.27
79012;DHT22;68418;44.714;37.756;2023-03-30T06:02:46;20.17;50.25
79012;DHT22;68418;44.714;37.756;2023-03-30T06:03:51;20.17;50.19
79012;DHT22;68418;44.714;37.756;2023-03-30T06:04:52;20.20;50.23
79012;DHT22;68418;44.714;37.756;2023-03-30T06:05:54;20.17;50.18
79012;DHT22;68418;44.714;37.756;2023-03-30T06:06:55;20.19;50.35
79012;DHT22;68418;44.714;37.756;2023-03-30T06:07:56;20.19;50.22
79012;DHT22;68418;44.714;37.756;2023-03-30T06:08:58;20.17;50.29
79012;DHT22;68418;44.714;37.756;2023-03-30T06:10:00;20.17;50.30
79012;DHT22;68418;44.714;37.756;2023-03-30T06:11:03;20.19;50.21
79012;DHT22;68418;44.714;37.756;2023-03-30T06:12:15;20.19;50.33
79012;DHT22;68418;44.714;37.756;2023-03-30T06:13:17;20.20;50.23
79012;DHT22;68418;44.714;37.756;2023-03-30T06:14:25;20.23;50.10
79012;DHT22;68418;44.714;37.756;2023-03-30T06:15:46;20.19;50.14
79012;DHT22;68418;44.714;37.756;2023-03-30T06:16:53;20.21;50.20
79012;DHT22;68418;44.714;37.756;2023-03-30T06:17:54;20.20;50.14
79012;DHT22;68418;44.714;37.756;2023-03-30T06:18:56;20.21;50.15
79012;DHT22;68418;44.714;37.756;2023-03-30T06:19:57;20.21;50.17
79012;DHT22;68418;44.714;37.756;2023-03-30T06:20:58;20.23;50.14
79012;DHT22;68418;44.714;37.756;2023-03-30T06:22:03;20.24;50.16
79012;DHT22;68418;44.714;37.756;2023-03-30T06:23:14;20.24;50.16
79012;DHT22;68418;44.714;37.756;2023-03-30T06:24:16;20.21;50.19
79012;DHT22;68418;44.714;37.756;2023-03-30T06:25:20;20.21;50.28
79012;DHT22;68418;44.714;37.756;2023-03-30T06:26:24;20.26;50.27
79012;DHT22;68418;44.714;37.756;2023-03-30T06:27:26;20.24;50.13
79012;DHT22;68418;44.714;37.756;2023-03-30T06:28:27;20.23;50.18
79012;DHT22;68418;44.714;37.756;2023-03-30T06:29:29;20.21;50.10
79012;DHT22;68418;44.714;37.756;2023-03-30T06:30:32;20.24;50.10
79012;DHT22;68418;44.714;37.756;2023-03-30T06:31:37;20.23;50.18
79012;DHT22;68418;44.714;37.756;2023-03-30T06:32:58;20.21;50.21
79012;DHT22;68418;44.714;37.756;2023-03-30T06:34:09;20.19;50.22
79012;DHT22;68418;44.714;37.756;2023-03-30T06:35:10;20.19;50.13
79012;DHT22;68418;44.714;37.756;2023-03-30T06:36:13;20.23;50.20
79012;DHT22;68418;44.714;37.756;2023-03-30T06:37:16;20.21;50.12
79012;DHT22;68418;44.714;37.756;2023-03-30T06:38:18;20.21;50.10
79012;DHT22;68418;44.714;37.756;2023-03-30T06:39:20;20.24;50.14
79012;DHT22;68418;44.714;37.756;2023-03-30T06:40:21;20.24;50.17
79012;DHT22;68418;44.714;37.756;2023-03-30T06:41:25;20.26;50.21
79012;DHT22;68418;44.714;37.756;2023-03-30T06:42:28;20.26;50.24
79012;DHT22;68418;44.714;37.756;2023-03-30T06:43:42;20.24;50.45
79012;DHT22;68418;44.714;37.756;2023-03-30T06:45:06;20.27;50.07
79012;DHT22;68418;44.714;37.756;2023-03-30T06:46:09;20.27;49.86
79012;DHT22;68418;44.714;37.756;2023-03-30T06:47:13;20.29;49.70
79012;DHT22;68418;44.714;37.756;2023-03-30T06:48:15;20.26;49.58
79012;DHT22;68418;44.714;37.756;2023-03-30T06:49:17;20.27;49.50
79012;DHT22;68418;44.714;37.756;2023-03-30T06:50:18;20.29;49.49
79012;DHT22;68418;44.714;37.756;2023-03-30T06:51:22;20.29;49.38
79012;DHT22;68418;44.714;37.756;2023-03-30T06:52:24;20.30;49.33
79012;DHT22;68418;44.714;37.756;2023-03-30T06:53:26;20.30;49.29
79012;DHT22;68418;44.714;37.756;2023-03-30T06:54:28;20.33;49.24
79012;DHT22;68418;44.714;37.756;2023-03-30T06:55:38;20.30;49.22
79012;DHT22;68418;44.714;37.756;2023-03-30T06:56:40;20.33;49.17
79012;DHT22;68418;44.714;37.756;2023-03-30T06:57:47;20.30;49.13
79012;DHT22;68418;44.714;37.756;2023-03-30T06:58:48;20.30;49.07
79012;DHT22;68418;44.714;37.756;2023-03-30T06:59:50;20.30;49.04
79012;DHT22;68418;44.714;37.756;2023-03-30T07:00:55;20.33;49.00
79012;DHT22;68418;44.714;37.756;2023-03-30T07:01:56;20.34;49.04
79012;DHT22;68418;44.714;37.756;2023-03-30T07:03:36;20.33;48.99
79012;DHT22;68418;44.714;37.756;2023-03-30T07:04:51;20.33;48.95
79012;DHT22;68418;44.714;37.756;2023-03-30T07:06:18;20.34;48.89
79012;DHT22;68418;44.714;37.756;2023-03-30T07:07:20;20.30;48.88
79012;DHT22;68418;44.714;37.756;2023-03-30T07:08:22;20.37;48.86
79012;DHT22;68418;44.714;37.756;2023-03-30T07:09:27;20.34;48.87
79012;DHT22;68418;44.714;37.756;2023-03-30T07:10:28;20.34;48.81
79012;DHT22;68418;44.714;37.756;2023-03-30T07:11:32;20.34;48.78
79012;DHT22;68418;44.714;37.756;2023-03-30T07:12:37;20.36;48.75
79012;DHT22;68418;44.714;37.756;2023-03-30T07:13:38;20.36;48.72
79012;DHT22;68418;44.714;37.756;2023-03-30T07:14:40;20.36;48.69
79012;DHT22;68418;44.714;37.756;2023-03-30T07:15:43;20.37;48.71
79012;DHT22;68418;44.714;37.756;2023-03-30T07:16:44;20.37;48.65
79012;DHT22;68418;44.714;37.756;2023-03-30T07:17:45;20.36;48.68
79012;DHT22;68418;44.714;37.756;2023-03-30T07:18:47;20.36;48.65
79012;DHT22;68418;44.714;37.756;2023-03-30T07:19:48;20.36;48.60
79012;DHT22;68418;44.714;37.756;2023-03-30T07:20:50;20.37;48.56
79012;DHT22;68418;44.714;37.756;2023-03-30T07:21:55;20.37;48.61
79012;DHT22;68418;44.714;37.756;2023-03-30T07:23:01;20.33;48.60
79012;DHT22;68418;44.714;37.756;2023-03-30T07:24:03;20.34;48.58
79012;DHT22;68418;44.714;37.756;2023-03-30T07:25:09;20.37;48.57
79012;DHT22;68418;44.714;37.756;2023-03-30T07:26:10;20.36;48.57
79012;DHT22;68418;44.714;37.756;2023-03-30T07:27:27;20.38;48.52
79012;DHT22;68418;44.714;37.756;2023-03-30T07:28:31;20.37;48.49
79012;DHT22;68418;44.714;37.756;2023-03-30T07:29:32;20.37;48.45
79012;DHT22;68418;44.714;37.756;2023-03-30T07:30:34;20.36;48.45
79012;DHT22;68418;44.714;37.756;2023-03-30T07:31:39;20.36;48.42
79012;DHT22;68418;44.714;37.756;2023-03-30T07:32:43;20.37;48.45
79012;DHT22;68418;44.714;37.756;2023-03-30T07:33:44;20.36;48.35
79012;DHT22;68418;44.714;37.756;2023-03-30T07:34:49;20.37;48.40
79012;DHT22;68418;44.714;37.756;2023-03-30T07:35:51;20.38;48.36
79012;DHT22;68418;44.714;37.756;2023-03-30T07:36:57;20.38;48.31
79012;DHT22;68418;44.714;37.756;2023-03-30T07:38:02;20.40;48.31
79012;DHT22;68418;44.714;37.756;2023-03-30T07:39:06;20.40;48.29
79012;DHT22;68418;44.714;37.756;2023-03-30T07:40:11;20.40;48.26
79012;DHT22;68418;44.714;37.756;2023-03-30T07:41:15;20.37;48.21
79012;DHT22;68418;44.714;37.756;2023-03-30T07:42:22;20.38;48.20
79012;DHT22;68418;44.714;37.756;2023-03-30T07:43:24;20.38;48.19
79012;DHT22;68418;44.714;37.756;2023-03-30T07:44:28;20.40;48.17
79012;DHT22;68418;44.714;37.756;2023-03-30T07:45:35;20.40;48.16
79012;DHT22;68418;44.714;37.756;2023-03-30T07:46:39;20.38;48.21
79012;DHT22;68418;44.714;37.756;2023-03-30T07:47:45;20.37;48.24
79012;DHT22;68418;44.714;37.756;2023-03-30T07:48:46;20.40;48.20